Time;durP1;ratioP1;P1;durP2;ratioP2;P2;SDS_P1;SDS_P2;PMS_P1;PMS_P2;Temp;Humidity;BMP_temperature;BMP_pressure;BME280_temperature;BME280_humidity;BME280_pressure;Samples;Min_cycle;Max_cycle;Signal;HPM_P1;HPM_P2
2023/08/30 00:00:40;;;;;;;4.43;4.23;;;14.60;81.70;;;;;;6213688;28;20247;-86
2023/08/30 00:03:45;;;;;;;4.37;4.17;;;14.60;81.80;;;;;;6207544;28;20236;-86
2023/08/30 00:06:48;;;;;;;4.83;4.60;;;14.60;81.80;;;;;;6208400;28;20227;-86
2023/08/30 00:09:52;;;;;;;4.50;4.40;;;14.60;81.90;;;;;;6213897;28;20244;-85
2023/08/30 00:12:55;;;;;;;4.67;4.47;;;14.60;82.00;;;;;;6203793;28;20318;-87
2023/08/30 00:15:58;;;;;;;5.70;5.30;;;14.60;82.00;;;;;;6211068;28;20231;-87
2023/08/30 00:19:03;;;;;;;5.20;4.90;;;14.60;82.00;;;;;;6213649;28;21633;-86
2023/08/30 00:22:07;;;;;;;4.93;4.63;;;14.60;81.90;;;;;;6210893;28;20235;-84
2023/08/30 00:25:10;;;;;;;4.87;4.67;;;14.60;81.90;;;;;;6192025;28;20394;-86
2023/08/30 00:28:13;;;;;;;5.67;5.27;;;14.60;81.80;;;;;;6207091;28;20243;-87
2023/08/30 00:31:16;;;;;;;5.00;4.70;;;14.60;81.90;;;;;;6207521;28;20242;-85
2023/08/30 00:34:21;;;;;;;5.50;5.20;;;14.50;82.00;;;;;;6225773;28;20231;-83
2023/08/30 00:37:24;;;;;;;5.43;5.03;;;14.60;81.80;;;;;;6225340;28;20230;-82
2023/08/30 00:40:32;;;;;;;5.30;4.97;;;14.50;81.70;;;;;;6237200;28;20232;-83
2023/08/30 00:43:35;;;;;;;4.23;4.13;;;14.60;81.70;;;;;;6229178;28;20254;-82
2023/08/30 00:46:38;;;;;;;5.17;4.97;;;14.50;81.80;;;;;;6243878;28;20258;-81
2023/08/30 00:49:43;;;;;;;5.20;4.97;;;14.50;81.80;;;;;;6228877;28;20235;-82
2023/08/30 00:52:46;;;;;;;4.20;4.10;;;14.50;81.80;;;;;;6236121;28;20231;-81
2023/08/30 00:55:49;;;;;;;4.10;4.00;;;14.50;82.00;;;;;;6245055;28;20261;-82
2023/08/30 00:58:53;;;;;;;5.60;5.10;;;14.40;82.00;;;;;;6241829;28;20232;-81
2023/08/30 01:01:57;;;;;;;4.77;4.47;;;14.40;82.00;;;;;;6225874;28;20227;-80
2023/08/30 01:05:05;;;;;;;5.10;4.90;;;14.40;82.00;;;;;;6235140;28;21650;-81
2023/08/30 01:08:08;;;;;;;5.07;3.90;;;14.40;82.00;;;;;;6230655;28;20247;-81
2023/08/30 01:11:16;;;;;;;3.77;3.67;;;14.40;82.00;;;;;;6233728;28;20231;-85
2023/08/30 01:14:23;;;;;;;4.60;4.30;;;14.40;82.00;;;;;;6234559;28;20429;-82
2023/08/30 01:17:28;;;;;;;4.63;4.33;;;14.40;82.10;;;;;;6231463;28;20224;-80
2023/08/30 01:20:38;;;;;;;5.20;4.70;;;14.30;82.20;;;;;;6244237;28;20335;-82
2023/08/30 01:23:49;;;;;;;5.10;4.90;;;14.30;82.20;;;;;;6226864;28;20242;-82
2023/08/30 01:27:08;;;;;;;5.23;4.90;;;14.20;82.40;;;;;;6242857;28;20390;-83
2023/08/30 01:30:12;;;;;;;5.23;5.03;;;14.30;82.40;;;;;;6242115;28;20247;-81
2023/08/30 01:33:17;;;;;;;4.90;4.70;;;14.30;82.30;;;;;;6235977;28;20215;-80
2023/08/30 01:36:21;;;;;;;4.83;4.53;;;14.20;82.30;;;;;;6232962;28;20220;-80
2023/08/30 01:39:25;;;;;;;4.20;4.00;;;14.20;82.30;;;;;;6249819;28;20262;-80
2023/08/30 01:42:35;;;;;;;3.83;3.73;;;14.20;82.30;;;;;;6239075;28;20572;-80
2023/08/30 01:45:41;;;;;;;4.17;4.07;;;14.20;82.30;;;;;;6239299;28;20231;-81
2023/08/30 01:48:45;;;;;;;5.13;4.83;;;14.20;82.20;;;;;;6245035;28;20292;-82
2023/08/30 01:51:49;;;;;;;4.13;3.93;;;14.20;82.20;;;;;;6233895;28;20243;-81
2023/08/30 01:54:53;;;;;;;4.03;3.93;;;14.20;82.40;;;;;;6233005;28;20227;-80
2023/08/30 01:57:57;;;;;;;4.30;4.20;;;14.10;82.30;;;;;;6239059;28;20224;-81
2023/08/30 02:01:04;;;;;;;4.60;4.37;;;14.20;82.40;;;;;;6239274;28;20223;-81
2023/08/30 02:04:07;;;;;;;4.50;4.30;;;14.10;82.20;;;;;;6248768;28;20259;-83
2023/08/30 02:07:18;;;;;;;3.97;3.87;;;14.10;82.30;;;;;;6230267;28;20230;-80
2023/08/30 02:10:26;;;;;;;4.53;4.33;;;14.10;82.30;;;;;;6234578;28;20216;-79
2023/08/30 02:13:33;;;;;;;4.67;4.50;;;14.10;82.20;;;;;;6239774;28;20227;-83
2023/08/30 02:16:37;;;;;;;3.90;3.80;;;14.10;82.20;;;;;;6237288;28;20231;-84
2023/08/30 02:19:41;;;;;;;3.90;3.80;;;14.10;82.00;;;;;;6223159;28;20283;-82
2023/08/30 02:22:44;;;;;;;3.57;3.57;;;14.10;82.00;;;;;;6202090;28;20282;-87
2023/08/30 02:25:48;;;;;;;3.80;3.70;;;14.10;82.00;;;;;;6201913;28;20239;-85
2023/08/30 02:28:52;;;;;;;4.17;3.93;;;14.00;82.00;;;;;;6205938;28;20236;-86
2023/08/30 02:31:55;;;;;;;4.47;4.27;;;14.00;82.00;;;;;;6203513;28;20263;-85
2023/08/30 02:34:58;;;;;;;4.30;4.17;;;14.00;81.90;;;;;;6209506;28;20239;-84
2023/08/30 02:38:04;;;;;;;4.53;4.27;;;14.00;81.80;;;;;;6211812;28;20917;-85
2023/08/30 02:41:10;;;;;;;3.90;3.70;;;13.90;81.80;;;;;;6215734;28;20382;-87
2023/08/30 02:44:14;;;;;;;5.00;4.27;;;13.90;81.80;;;;;;6207394;28;20235;-86
2023/08/30 02:47:17;;;;;;;4.53;4.33;;;13.90;81.90;;;;;;6207070;28;20227;-84
2023/08/30 02:50:21;;;;;;;3.60;3.50;;;13.90;81.90;;;;;;6199143;28;20243;-87
2023/08/30 02:53:24;;;;;;;3.83;3.73;;;13.90;81.90;;;;;;6208804;28;20333;-85
2023/08/30 02:56:27;;;;;;;3.77;3.47;;;13.80;82.00;;;;;;6198915;28;20854;-86
2023/08/30 02:59:31;;;;;;;4.20;3.90;;;13.80;82.00;;;;;;6203297;28;20535;-85
2023/08/30 03:02:35;;;;;;;4.30;4.00;;;13.70;82.00;;;;;;6204603;28;20285;-85
2023/08/30 03:05:39;;;;;;;3.90;3.80;;;13.70;81.90;;;;;;6206654;28;20242;-85
2023/08/30 03:08:44;;;;;;;4.10;4.00;;;13.70;81.90;;;;;;6206047;28;20373;-84
2023/08/30 03:11:48;;;;;;;4.30;3.93;;;13.70;81.80;;;;;;6211327;28;20291;-85
2023/08/30 03:14:52;;;;;;;4.37;4.17;;;13.60;81.80;;;;;;6208531;28;20235;-85
2023/08/30 03:17:56;;;;;;;4.77;4.37;;;13.60;81.80;;;;;;6204265;28;20244;-86
2023/08/30 03:21:02;;;;;;;5.07;4.70;;;13.50;82.20;;;;;;6201939;28;20617;-86
2023/08/30 03:24:06;;;;;;;4.37;4.27;;;13.50;82.60;;;;;;6202738;28;20728;-85
2023/08/30 03:27:09;;;;;;;5.27;5.07;;;13.50;82.60;;;;;;6200482;28;20853;-85
2023/08/30 03:30:14;;;;;;;5.40;5.00;;;13.50;82.60;;;;;;6199870;28;20302;-87
2023/08/30 03:33:18;;;;;;;5.53;5.33;;;13.50;82.80;;;;;;6200023;28;20231;-85
2023/08/30 03:36:21;;;;;;;4.63;4.53;;;13.40;82.90;;;;;;6213324;28;20255;-84
2023/08/30 03:39:24;;;;;;;5.33;5.07;;;13.40;82.80;;;;;;6208867;28;20246;-85
2023/08/30 03:42:27;;;;;;;6.70;6.30;;;13.30;83.10;;;;;;6213241;28;20248;-85
2023/08/30 03:45:36;;;;;;;6.27;6.07;;;13.30;83.40;;;;;;6196857;28;20231;-86
2023/08/30 03:48:39;;;;;;;6.63;6.23;;;13.30;83.40;;;;;;6212379;28;20287;-86
2023/08/30 03:51:42;;;;;;;5.73;5.50;;;13.30;83.60;;;;;;6209982;28;20239;-84
2023/08/30 03:54:45;;;;;;;7.20;6.80;;;13.30;83.50;;;;;;6207453;28;20235;-85
2023/08/30 03:57:49;;;;;;;6.57;6.27;;;13.40;83.60;;;;;;6219421;28;20769;-85
2023/08/30 04:00:53;;;;;;;6.20;5.70;;;13.50;83.50;;;;;;6197984;28;20339;-85
2023/08/30 04:03:56;;;;;;;5.60;5.40;;;13.40;83.50;;;;;;6199747;28;20329;-85
2023/08/30 04:07:00;;;;;;;6.03;5.63;;;13.50;83.50;;;;;;6213553;28;20231;-85
2023/08/30 04:10:06;;;;;;;5.60;5.40;;;13.50;83.60;;;;;;6201983;28;20734;-84
2023/08/30 04:13:10;;;;;;;6.50;6.10;;;13.50;83.50;;;;;;6205247;28;20232;-85
2023/08/30 04:16:15;;;;;;;5.83;5.60;;;13.50;83.40;;;;;;6203976;28;20243;-84
2023/08/30 04:19:19;;;;;;;5.67;5.47;;;13.50;83.50;;;;;;6208096;28;20239;-86
2023/08/30 04:22:22;;;;;;;6.70;6.30;;;13.50;83.30;;;;;;6208135;28;20880;-85
2023/08/30 04:25:25;;;;;;;5.97;5.67;;;13.50;83.40;;;;;;6204542;28;20240;-86
2023/08/30 04:28:28;;;;;;;6.40;6.00;;;13.50;83.20;;;;;;6201731;28;20875;-84
2023/08/30 04:31:33;;;;;;;4.80;4.70;;;13.50;83.20;;;;;;6209358;28;20274;-86
2023/08/30 04:34:36;;;;;;;4.80;4.50;;;13.50;83.20;;;;;;6210279;28;20783;-84
2023/08/30 04:37:39;;;;;;;5.63;5.33;;;13.50;83.20;;;;;;6200317;28;20237;-85
2023/08/30 04:40:42;;;;;;;4.40;4.20;;;13.50;83.10;;;;;;6202319;28;20242;-85
2023/08/30 04:43:46;;;;;;;4.73;4.63;;;13.50;83.10;;;;;;6213848;28;20767;-87
2023/08/30 04:46:51;;;;;;;4.67;4.47;;;13.60;83.10;;;;;;6214085;28;20940;-81
2023/08/30 04:49:55;;;;;;;5.97;5.77;;;13.60;83.10;;;;;;6197424;28;20252;-82
2023/08/30 04:52:58;;;;;;;5.90;5.60;;;13.70;82.80;;;;;;6207114;28;20284;-83
2023/08/30 04:56:02;;;;;;;4.97;4.77;;;13.70;82.70;;;;;;6205734;28;20988;-79
2023/08/30 04:59:05;;;;;;;5.77;5.57;;;13.80;82.80;;;;;;6206076;28;20857;-81
2023/08/30 05:02:10;;;;;;;5.40;5.20;;;13.90;82.60;;;;;;6210729;28;20241;-81
2023/08/30 05:05:13;;;;;;;5.43;5.27;;;13.90;82.20;;;;;;6207874;28;20715;-81
2023/08/30 05:08:16;;;;;;;5.77;5.50;;;13.90;82.10;;;;;;6211953;28;20325;-82
2023/08/30 05:11:20;;;;;;;6.17;5.73;;;14.00;81.80;;;;;;6208828;28;20341;-78
2023/08/30 05:14:23;;;;;;;5.67;5.33;;;13.90;81.60;;;;;;6212530;28;20310;-81
2023/08/30 05:17:29;;;;;;;6.03;5.63;;;14.00;82.10;;;;;;6196728;28;20259;-81
2023/08/30 05:20:32;;;;;;;6.80;6.30;;;14.10;81.50;;;;;;6210378;28;20275;-80
2023/08/30 05:23:37;;;;;;;7.03;6.30;;;14.20;81.40;;;;;;6202554;28;20244;-80
2023/08/30 05:26:46;;;;;;;9.73;7.13;;;14.30;81.30;;;;;;6204955;28;20238;-82
2023/08/30 05:29:49;;;;;;;7.97;7.27;;;14.40;80.60;;;;;;6205202;28;20243;-80
2023/08/30 05:32:54;;;;;;;7.57;6.90;;;14.40;81.00;;;;;;6203305;28;20247;-81
2023/08/30 05:35:57;;;;;;;7.50;7.03;;;14.50;80.40;;;;;;6216373;28;20235;-79
2023/08/30 05:39:00;;;;;;;7.40;6.90;;;14.50;80.40;;;;;;6211460;28;20235;-80
2023/08/30 05:42:04;;;;;;;6.57;6.17;;;14.50;80.20;;;;;;6209446;28;20237;-80
2023/08/30 05:45:08;;;;;;;6.60;6.30;;;14.50;80.30;;;;;;6212997;28;20750;-78
2023/08/30 05:48:12;;;;;;;5.77;5.47;;;14.50;80.30;;;;;;6208771;28;20239;-79
2023/08/30 05:51:15;;;;;;;6.10;5.80;;;14.60;80.30;;;;;;6214069;28;20770;-78
2023/08/30 05:54:19;;;;;;;6.23;5.80;;;14.70;80.40;;;;;;6212511;28;20227;-80
2023/08/30 05:57:23;;;;;;;5.40;5.10;;;14.80;80.30;;;;;;6202529;28;20464;-79
2023/08/30 06:00:26;;;;;;;5.50;5.10;;;14.80;80.00;;;;;;6214609;28;20248;-80
2023/08/30 06:03:31;;;;;;;4.87;4.67;;;14.90;79.40;;;;;;6203328;28;20721;-78
2023/08/30 06:06:34;;;;;;;5.37;5.07;;;15.00;79.40;;;;;;6210069;28;20814;-80
2023/08/30 06:09:37;;;;;;;7.83;6.37;;;15.10;79.30;;;;;;6212449;28;20266;-80
2023/08/30 06:12:40;;;;;;;5.20;4.93;;;15.30;79.00;;;;;;6210916;28;20243;-77
2023/08/30 06:15:44;;;;;;;4.93;4.47;;;15.30;78.40;;;;;;6210105;28;20325;-80
2023/08/30 06:18:49;;;;;;;4.80;4.50;;;15.40;77.90;;;;;;6205394;28;20617;-78
2023/08/30 06:21:52;;;;;;;7.13;6.63;;;15.30;77.90;;;;;;6203943;28;20231;-79
2023/08/30 06:24:55;;;;;;;9.07;8.20;;;15.50;77.80;;;;;;6216415;28;20239;-79
2023/08/30 06:28:01;;;;;;;5.03;4.80;;;15.60;77.10;;;;;;6212909;28;20247;-78
2023/08/30 06:31:04;;;;;;;5.00;4.67;;;15.60;76.80;;;;;;6213442;28;20235;-79
2023/08/30 06:34:09;;;;;;;4.43;4.23;;;15.70;76.50;;;;;;6214977;28;20250;-80
2023/08/30 06:37:12;;;;;;;5.00;4.80;;;15.70;76.90;;;;;;6216405;28;20397;-78
2023/08/30 06:40:15;;;;;;;4.37;4.20;;;15.80;76.20;;;;;;6204139;28;20528;-80
2023/08/30 06:43:19;;;;;;;4.37;4.17;;;15.80;76.20;;;;;;6213382;28;20443;-77
2023/08/30 06:46:22;;;;;;;4.53;4.27;;;15.90;76.00;;;;;;6216552;28;20243;-79
2023/08/30 06:49:27;;;;;;;4.40;4.30;;;16.00;75.80;;;;;;6212424;28;20578;-78
2023/08/30 06:52:30;;;;;;;5.20;4.90;;;16.10;75.90;;;;;;6205643;28;20736;-78
2023/08/30 06:55:35;;;;;;;5.03;4.83;;;16.20;75.30;;;;;;6207643;28;20235;-80
2023/08/30 06:58:39;;;;;;;5.43;5.13;;;16.20;75.10;;;;;;6211778;28;20243;-78
2023/08/30 07:01:42;;;;;;;5.43;5.00;;;16.30;75.00;;;;;;6206980;28;20884;-80
2023/08/30 07:04:46;;;;;;;4.30;4.10;;;16.40;74.80;;;;;;6220110;28;20246;-80
2023/08/30 07:07:49;;;;;;;4.97;4.50;;;16.70;74.60;;;;;;6212686;28;20865;-80
2023/08/30 07:10:53;;;;;;;4.70;4.37;;;16.90;73.80;;;;;;6215290;28;20239;-80
2023/08/30 07:13:56;;;;;;;3.27;3.17;;;17.00;70.80;;;;;;6212175;28;20238;-78
2023/08/30 07:17:00;;;;;;;3.97;3.67;;;17.10;70.70;;;;;;6214234;28;20239;-78
2023/08/30 07:20:08;;;;;;;3.20;3.10;;;17.20;69.80;;;;;;6214183;28;20247;-80
2023/08/30 07:23:11;;;;;;;3.73;3.53;;;17.20;70.30;;;;;;6211283;28;20716;-78
2023/08/30 07:26:14;;;;;;;3.73;3.47;;;17.20;70.40;;;;;;6212745;28;20243;-80
2023/08/30 07:29:17;;;;;;;3.00;2.90;;;17.50;70.90;;;;;;6206424;28;20236;-79
2023/08/30 07:32:20;;;;;;;3.30;3.10;;;17.50;69.80;;;;;;6216808;28;20231;-79
2023/08/30 07:35:25;;;;;;;3.13;3.03;;;17.70;69.80;;;;;;6208064;28;20340;-81
2023/08/30 07:38:28;;;;;;;3.10;2.90;;;17.80;69.20;;;;;;6201319;28;20247;-79
2023/08/30 07:41:35;;;;;;;2.50;2.43;;;17.80;68.80;;;;;;6209547;28;20622;-80
2023/08/30 07:44:38;;;;;;;4.43;3.03;;;17.50;69.30;;;;;;6214725;28;20292;-80
2023/08/30 07:47:41;;;;;;;2.70;2.60;;;17.60;69.20;;;;;;6208183;28;20259;-80
2023/08/30 07:50:46;;;;;;;3.37;3.10;;;17.60;69.70;;;;;;6211557;28;20239;-78
2023/08/30 07:53:49;;;;;;;2.63;2.63;;;17.60;68.40;;;;;;6211603;28;20235;-79
2023/08/30 07:56:52;;;;;;;3.07;3.00;;;17.50;69.00;;;;;;6206337;28;20235;-78
2023/08/30 07:59:55;;;;;;;3.33;2.70;;;17.50;69.10;;;;;;6194174;28;20782;-79
2023/08/30 08:02:59;;;;;;;2.83;2.70;;;17.50;69.20;;;;;;6212010;28;20247;-79
2023/08/30 08:06:04;;;;;;;2.40;2.40;;;17.50;69.30;;;;;;6214105;28;20908;-81
2023/08/30 08:09:08;;;;;;;3.13;3.03;;;17.60;69.40;;;;;;6206870;28;20262;-79
2023/08/30 08:12:11;;;;;;;2.87;2.77;;;17.80;69.50;;;;;;6212879;28;20247;-79
2023/08/30 08:15:14;;;;;;;4.17;3.20;;;17.80;68.70;;;;;;6199268;28;20227;-80
2023/08/30 08:18:18;;;;;;;3.20;3.00;;;17.60;69.00;;;;;;6201682;28;20847;-79
2023/08/30 08:21:22;;;;;;;3.10;3.10;;;17.60;68.90;;;;;;6203289;28;20232;-78
2023/08/30 08:24:25;;;;;;;3.33;3.07;;;17.60;68.70;;;;;;6222361;28;20235;-78
2023/08/30 08:27:30;;;;;;;3.07;2.97;;;17.50;69.10;;;;;;6198071;28;20263;-79
2023/08/30 08:30:33;;;;;;;3.27;3.17;;;17.60;69.20;;;;;;6219803;28;20312;-80
2023/08/30 08:33:36;;;;;;;3.00;2.90;;;17.80;68.40;;;;;;6209838;28;20232;-77
2023/08/30 08:36:43;;;;;;;2.83;2.80;;;17.80;68.70;;;;;;6210942;28;20632;-82
2023/08/30 08:39:46;;;;;;;3.60;3.40;;;18.00;68.00;;;;;;6200676;28;20727;-79
2023/08/30 08:42:51;;;;;;;3.00;2.80;;;18.10;67.60;;;;;;6210373;28;20243;-80
2023/08/30 08:45:57;;;;;;;2.80;2.70;;;18.30;67.20;;;;;;6213866;28;20912;-79
2023/08/30 08:49:06;;;;;;;3.43;3.33;;;18.50;66.50;;;;;;6211179;28;20246;-78
2023/08/30 08:52:11;;;;;;;3.13;2.93;;;18.30;66.50;;;;;;6209867;28;20370;-79
2023/08/30 08:55:34;;;;;;;3.93;3.80;;;18.20;66.50;;;;;;6207063;28;20293;-79
2023/08/30 08:58:39;;;;;;;3.33;3.10;;;18.30;67.30;;;;;;6211829;28;20247;-80
2023/08/30 09:01:42;;;;;;;3.60;3.40;;;18.50;66.90;;;;;;6208362;28;20234;-79
2023/08/30 09:04:46;;;;;;;3.87;3.57;;;18.70;66.40;;;;;;6221663;28;20235;-82
2023/08/30 09:07:53;;;;;;;4.37;3.27;;;18.90;66.30;;;;;;6200289;28;20323;-80
2023/08/30 09:10:56;;;;;;;3.47;3.37;;;18.80;64.80;;;;;;6203554;28;20237;-78
2023/08/30 09:14:00;;;;;;;2.97;2.97;;;18.50;65.50;;;;;;6212237;28;20311;-81
2023/08/30 09:17:04;;;;;;;3.30;3.10;;;18.40;65.60;;;;;;6211703;28;20235;-80
2023/08/30 09:20:09;;;;;;;2.70;2.57;;;18.80;65.90;;;;;;6220515;28;20235;-80
2023/08/30 09:23:24;;;;;;;2.83;2.73;;;19.10;64.00;;;;;;6214670;28;20238;-79
2023/08/30 09:26:28;;;;;;;2.53;2.50;;;19.30;64.30;;;;;;6210736;28;20231;-78
2023/08/30 09:29:33;;;;;;;2.20;2.20;;;19.20;63.20;;;;;;6213944;28;20291;-80
2023/08/30 09:32:41;;;;;;;2.37;2.37;;;19.20;62.70;;;;;;6211865;28;20246;-80
2023/08/30 09:35:47;;;;;;;2.90;2.53;;;19.30;62.40;;;;;;6204516;28;20774;-78
2023/08/30 09:38:52;;;;;;;2.73;2.60;;;19.20;61.70;;;;;;6188364;28;20381;-79
2023/08/30 09:41:56;;;;;;;2.80;2.60;;;19.00;63.40;;;;;;6181312;28;20236;-80
2023/08/30 09:44:59;;;;;;;3.20;3.10;;;19.00;63.20;;;;;;6184377;28;20339;-81
2023/08/30 09:48:03;;;;;;;2.37;2.27;;;19.00;63.30;;;;;;6207007;28;20281;-80
2023/08/30 09:51:09;;;;;;;3.40;3.10;;;19.20;63.20;;;;;;6208091;28;20247;-81
2023/08/30 09:54:17;;;;;;;3.40;3.10;;;19.20;64.00;;;;;;6209343;28;20246;-79
2023/08/30 09:57:23;;;;;;;3.13;3.03;;;19.30;64.30;;;;;;6194813;28;20235;-82
2023/08/30 10:00:26;;;;;;;3.17;3.07;;;19.50;63.40;;;;;;6215539;28;20255;-79
2023/08/30 10:03:31;;;;;;;2.93;2.83;;;19.90;64.10;;;;;;6223319;28;20235;-81
2023/08/30 10:06:37;;;;;;;2.40;2.40;;;20.00;61.90;;;;;;6213344;28;20263;-82
2023/08/30 10:09:43;;;;;;;2.83;2.67;;;19.90;60.20;;;;;;6209855;28;20247;-78
2023/08/30 10:13:07;;;;;;;3.27;3.17;;;19.70;60.90;;;;;;6218179;28;20242;-78
2023/08/30 10:16:19;;;;;;;3.30;3.20;;;19.50;60.80;;;;;;6201727;28;20914;-78
2023/08/30 10:19:25;;;;;;;3.23;3.13;;;19.40;62.00;;;;;;6197853;28;20247;-80
2023/08/30 10:22:28;;;;;;;2.70;2.67;;;19.40;61.90;;;;;;6218008;28;20243;-80
2023/08/30 10:25:35;;;;;;;3.03;2.90;;;19.50;61.50;;;;;;6212182;28;20246;-80
2023/08/30 10:28:39;;;;;;;4.10;3.10;;;19.70;60.20;;;;;;6214010;28;20251;-78
2023/08/30 10:31:43;;;;;;;3.43;3.30;;;19.90;60.80;;;;;;6215023;28;20247;-79
2023/08/30 10:34:49;;;;;;;3.70;3.50;;;19.90;59.90;;;;;;6208669;28;20286;-79
2023/08/30 10:37:55;;;;;;;5.67;3.40;;;20.00;60.50;;;;;;6210599;28;20307;-78
2023/08/30 10:41:09;;;;;;;3.67;3.53;;;20.30;60.40;;;;;;6205058;28;20327;-79
2023/08/30 10:44:15;;;;;;;3.73;3.60;;;20.30;60.90;;;;;;6220785;28;20331;-80
2023/08/30 10:47:23;;;;;;;3.30;3.20;;;20.40;58.60;;;;;;6207245;28;20243;-79
2023/08/30 10:50:31;;;;;;;3.20;3.10;;;20.50;60.30;;;;;;6214298;28;20235;-80
2023/08/30 10:53:34;;;;;;;3.03;2.93;;;20.40;61.40;;;;;;6204225;28;20248;-81
2023/08/30 10:56:49;;;;;;;3.33;3.23;;;20.60;60.40;;;;;;6219565;28;20315;-80
2023/08/30 11:00:10;;;;;;;3.40;3.30;;;20.10;60.10;;;;;;6209985;28;20251;-80
2023/08/30 11:03:15;;;;;;;3.43;3.30;;;20.50;59.80;;;;;;6209554;28;20631;-81
2023/08/30 11:06:18;;;;;;;2.80;2.70;;;20.90;59.10;;;;;;6207300;28;20243;-80
2023/08/30 11:09:23;;;;;;;4.93;4.00;;;21.10;59.00;;;;;;6206106;28;20931;-81
2023/08/30 11:12:29;;;;;;;4.00;3.70;;;21.30;57.70;;;;;;6207704;28;20236;-80
2023/08/30 11:15:32;;;;;;;2.93;2.83;;;20.70;57.30;;;;;;6209477;28;20313;-81
2023/08/30 11:18:39;;;;;;;3.63;3.53;;;20.50;58.20;;;;;;6214370;28;20290;-82
2023/08/30 11:21:45;;;;;;;3.30;3.10;;;20.30;58.60;;;;;;6202258;28;20243;-79
2023/08/30 11:24:49;;;;;;;3.40;3.30;;;20.40;58.40;;;;;;6212045;28;20369;-78
2023/08/30 11:28:03;;;;;;;2.73;2.63;;;20.30;58.30;;;;;;6217169;28;20263;-79
2023/08/30 11:31:06;;;;;;;3.53;3.40;;;20.50;59.00;;;;;;6207623;28;20240;-79
2023/08/30 11:34:09;;;;;;;2.77;2.67;;;20.60;57.50;;;;;;6206121;28;20239;-79
2023/08/30 11:37:13;;;;;;;2.60;2.60;;;20.50;57.00;;;;;;6213515;28;20302;-79
2023/08/30 11:40:16;;;;;;;3.60;3.50;;;20.60;56.40;;;;;;6211638;28;20239;-82
2023/08/30 11:43:21;;;;;;;2.47;2.40;;;20.70;56.20;;;;;;6210584;28;20318;-83
2023/08/30 11:46:24;;;;;;;2.47;2.40;;;20.90;56.50;;;;;;6205991;28;20305;-81
2023/08/30 11:49:28;;;;;;;2.83;2.53;;;21.30;56.20;;;;;;6219806;28;20239;-82
2023/08/30 11:52:32;;;;;;;2.20;2.10;;;21.50;56.30;;;;;;6202130;28;20369;-80
2023/08/30 11:55:35;;;;;;;2.40;2.30;;;21.50;54.70;;;;;;6210395;28;20317;-79
2023/08/30 11:58:40;;;;;;;2.90;2.70;;;21.40;56.10;;;;;;6207799;28;20829;-80
2023/08/30 12:01:43;;;;;;;3.37;3.17;;;21.50;56.00;;;;;;6211205;28;20235;-80
2023/08/30 12:04:47;;;;;;;2.40;2.30;;;21.30;55.60;;;;;;6215309;28;20378;-81
2023/08/30 12:07:51;;;;;;;2.57;2.57;;;20.90;56.70;;;;;;6198431;28;20283;-81
2023/08/30 12:10:55;;;;;;;2.60;2.50;;;21.10;56.70;;;;;;6202645;28;20228;-79
2023/08/30 12:14:04;;;;;;;2.20;2.20;;;21.30;56.60;;;;;;6211393;28;20250;-79
2023/08/30 12:17:12;;;;;;;2.93;2.83;;;21.40;56.90;;;;;;6209848;28;20247;-79
2023/08/30 12:20:20;;;;;;;2.47;2.33;;;21.30;54.80;;;;;;6213368;28;20235;-80
2023/08/30 12:23:25;;;;;;;2.67;2.67;;;21.30;55.40;;;;;;6204843;28;20251;-82
2023/08/30 12:26:33;;;;;;;3.37;3.17;;;21.00;57.10;;;;;;6203531;28;20238;-81
2023/08/30 12:29:39;;;;;;;3.20;3.10;;;20.90;55.90;;;;;;6210803;28;20247;-80
2023/08/30 12:32:43;;;;;;;2.30;2.30;;;20.80;56.70;;;;;;6208477;28;21037;-80
2023/08/30 12:35:47;;;;;;;2.87;2.60;;;21.00;56.70;;;;;;6201473;28;20247;-81
2023/08/30 12:38:50;;;;;;;2.50;2.50;;;20.90;56.50;;;;;;6211368;28;20330;-79
2023/08/30 12:41:53;;;;;;;2.73;2.50;;;21.00;56.80;;;;;;6194876;28;20315;-81
2023/08/30 12:44:57;;;;;;;2.87;2.77;;;21.00;57.00;;;;;;6203243;28;20231;-80
2023/08/30 12:48:00;;;;;;;3.10;2.90;;;20.70;56.70;;;;;;6207559;28;20325;-79
2023/08/30 12:51:04;;;;;;;3.33;2.70;;;20.40;56.90;;;;;;6207288;28;20235;-81
2023/08/30 12:54:07;;;;;;;2.60;2.50;;;20.30;57.70;;;;;;6202284;28;20312;-81
2023/08/30 12:57:11;;;;;;;3.10;3.00;;;20.30;57.00;;;;;;6191322;28;20235;-81
2023/08/30 13:00:19;;;;;;;2.40;2.30;;;20.40;56.60;;;;;;6207268;28;20683;-81
2023/08/30 13:03:54;;;;;;;4.13;3.93;;;20.70;56.90;;;;;;6139719;28;20330;-80
2023/08/30 13:06:57;;;;;;;3.17;3.07;;;21.00;57.00;;;;;;6207292;28;20247;-80
2023/08/30 13:10:00;;;;;;;3.77;3.50;;;20.90;57.30;;;;;;6207791;28;20242;-76
2023/08/30 13:13:04;;;;;;;3.60;3.40;;;20.70;56.90;;;;;;6198158;28;20243;-77
2023/08/30 13:16:08;;;;;;;5.20;3.17;;;20.80;58.30;;;;;;6202515;28;20231;-80
2023/08/30 13:19:11;;;;;;;2.87;2.77;;;20.90;57.20;;;;;;6191108;28;20235;-76
2023/08/30 13:22:14;;;;;;;3.20;3.10;;;20.70;58.40;;;;;;6203712;28;20232;-78
2023/08/30 13:25:18;;;;;;;3.37;3.07;;;20.80;58.10;;;;;;6211480;28;20235;-80
2023/08/30 13:28:21;;;;;;;3.80;3.60;;;20.80;57.80;;;;;;6198850;28;20347;-79
2023/08/30 13:31:25;;;;;;;3.17;3.07;;;21.10;57.20;;;;;;6197164;28;20258;-80
2023/08/30 13:34:28;;;;;;;2.63;2.53;;;21.10;57.40;;;;;;6205970;28;20322;-78
2023/08/30 13:37:31;;;;;;;2.60;2.50;;;21.60;56.30;;;;;;6196195;28;20378;-77
2023/08/30 13:40:34;;;;;;;3.70;3.30;;;21.50;56.70;;;;;;6210281;28;20775;-78
2023/08/30 13:43:38;;;;;;;3.30;3.20;;;21.70;55.70;;;;;;6203298;28;20714;-78
2023/08/30 13:46:44;;;;;;;2.70;2.60;;;21.50;55.70;;;;;;6207076;28;20247;-80
2023/08/30 13:49:47;;;;;;;3.20;3.00;;;21.20;56.60;;;;;;6217508;28;20892;-79
2023/08/30 13:52:50;;;;;;;3.93;3.83;;;21.10;56.80;;;;;;6206897;28;20231;-78
2023/08/30 13:55:54;;;;;;;3.60;3.40;;;21.40;56.00;;;;;;6198565;28;20290;-80
2023/08/30 13:58:58;;;;;;;3.07;2.90;;;21.40;56.30;;;;;;6206918;28;20240;-78
2023/08/30 14:02:03;;;;;;;3.43;3.30;;;21.40;55.90;;;;;;6211617;28;20322;-78
2023/08/30 14:05:08;;;;;;;3.30;3.10;;;21.50;56.20;;;;;;6206306;28;20246;-80
2023/08/30 14:08:11;;;;;;;3.30;3.20;;;21.60;56.10;;;;;;6204747;28;20244;-79
2023/08/30 14:11:15;;;;;;;3.23;3.13;;;21.90;55.10;;;;;;6203710;28;20779;-78
2023/08/30 14:14:18;;;;;;;3.00;2.80;;;22.20;56.50;;;;;;6209497;28;20302;-81
2023/08/30 14:17:22;;;;;;;3.10;2.90;;;22.50;55.20;;;;;;6209226;28;20235;-81
2023/08/30 14:20:28;;;;;;;3.57;3.37;;;22.80;55.80;;;;;;6208099;28;20241;-81
2023/08/30 14:23:31;;;;;;;3.97;3.77;;;22.90;54.00;;;;;;6215331;28;20251;-77
2023/08/30 14:26:34;;;;;;;3.90;3.60;;;22.50;54.40;;;;;;6215425;28;20288;-81
2023/08/30 14:29:37;;;;;;;3.77;3.67;;;22.50;54.40;;;;;;6215407;28;20298;-78
2023/08/30 14:32:42;;;;;;;3.47;3.27;;;22.10;54.00;;;;;;6216026;28;20763;-79
2023/08/30 14:35:45;;;;;;;2.97;2.87;;;22.10;54.30;;;;;;6211909;28;20315;-80
2023/08/30 14:38:48;;;;;;;3.60;3.50;;;22.20;54.60;;;;;;6202748;28;20286;-78
2023/08/30 14:41:51;;;;;;;3.17;3.00;;;21.90;53.10;;;;;;6215072;28;20679;-76
2023/08/30 14:44:54;;;;;;;3.47;3.20;;;21.90;53.90;;;;;;6214166;28;20362;-76
2023/08/30 14:47:58;;;;;;;3.60;3.50;;;22.10;53.80;;;;;;6203606;28;20243;-78
2023/08/30 14:51:03;;;;;;;2.90;2.70;;;22.40;53.50;;;;;;6210317;28;20243;-79
2023/08/30 14:54:06;;;;;;;2.80;2.53;;;22.50;51.90;;;;;;6212824;28;20318;-78
2023/08/30 14:57:09;;;;;;;2.77;2.67;;;22.70;52.20;;;;;;6201871;28;20247;-79
2023/08/30 15:00:13;;;;;;;2.90;2.80;;;23.10;51.10;;;;;;6209995;28;20323;-77
2023/08/30 15:03:18;;;;;;;3.20;3.00;;;23.30;49.70;;;;;;6214014;28;20267;-79
2023/08/30 15:06:21;;;;;;;3.00;2.90;;;23.20;51.10;;;;;;6209190;28;20658;-77
2023/08/30 15:09:25;;;;;;;3.17;3.07;;;23.10;52.20;;;;;;6214258;28;20247;-78
2023/08/30 15:12:29;;;;;;;3.73;3.53;;;23.00;50.20;;;;;;6205307;28;20336;-77
2023/08/30 15:15:32;;;;;;;3.13;3.00;;;22.80;50.70;;;;;;6200704;28;20304;-80
2023/08/30 15:18:36;;;;;;;3.20;3.10;;;22.60;51.70;;;;;;6209171;28;20321;-78
2023/08/30 15:21:40;;;;;;;3.37;3.27;;;22.50;52.60;;;;;;6214732;28;20240;-80
2023/08/30 15:24:48;;;;;;;3.27;3.17;;;22.20;53.60;;;;;;6212221;28;20231;-81
2023/08/30 15:27:51;;;;;;;2.83;2.73;;;21.90;54.60;;;;;;6201074;28;20234;-82
2023/08/30 15:30:54;;;;;;;2.60;2.50;;;21.30;53.30;;;;;;6221936;28;20232;-80
2023/08/30 15:33:59;;;;;;;2.53;2.40;;;21.00;53.60;;;;;;6219295;28;20263;-79
2023/08/30 15:37:03;;;;;;;2.40;2.40;;;20.80;54.10;;;;;;6209225;28;20518;-81
2023/08/30 15:40:09;;;;;;;3.10;2.90;;;20.70;54.40;;;;;;6204774;28;20236;-81
2023/08/30 15:43:12;;;;;;;2.83;2.83;;;20.60;54.80;;;;;;6212618;28;20326;-78
2023/08/30 15:46:16;;;;;;;2.70;2.57;;;20.30;54.20;;;;;;6209925;28;20282;-81
2023/08/30 15:49:21;;;;;;;2.80;2.70;;;20.30;54.00;;;;;;6203768;28;20235;-80
2023/08/30 15:52:24;;;;;;;3.20;3.20;;;20.30;53.50;;;;;;6204031;28;20330;-81
2023/08/30 15:55:28;;;;;;;2.73;2.60;;;20.30;53.90;;;;;;6209728;28;20884;-81
2023/08/30 15:58:31;;;;;;;3.23;2.60;;;20.30;54.40;;;;;;6205767;28;20250;-81
2023/08/30 16:01:34;;;;;;;2.37;2.27;;;20.00;53.90;;;;;;6207553;28;20252;-81